Aberdeen Regional Airport
KABR : now visible

Airfield :











YOU CAN JOIN US ON...

 
LOGIN :

Register | Disclaimer

   EN    FR    IT 

 









Legend :    VFR   Marginal VFR   IFR   Intensive IFR   Very Intensive IFR
Visi :
Ceiling :
>= 8 km
>= 3000ft
5 to 8 km
1000 to 3000 ft
1500m to 5 km
500 to 1000 ft
800 to 1500m
200 to 500 ft
< 800m
< 200 ft
Symbols :   Thunderstorms  Fog  Heavy snow  Heavy precipitations  Wind > 20 kt






- Airport Elevation : 1302 ft
- IATA code : ABR


KABR - Aberdeen Regional

CURRENT METAR :
  • 160753Z AUTO 34013KT 10SM OVC013 M04/M08 A2995 RMK AO2 SLP159 T10391078

EXPIRED METARs :
  • 160653Z AUTO 35014KT 10SM OVC013 M04/M08 A2996 RMK AO2 SLP161 T10391078
  • 160553Z AUTO 36012KT 10SM OVC014 M04/M08 A2996 RMK AO2 SLP162 T10391078 11022 21039 400001039 56009

TAF KABR
Valid from the 16 at 06:00 until the 17 at 06:00 UTC


160527Z 1606/1706 34011KT P6SM OVC015
FM161600 31009KT P6SM BKN025
FM161900 31010KT P6SM BKN090
FM170300 31009KT P6SM BKN070 WS020/33040KT
KZMP FIR / North America



MET'MAP, your aeronautical weather chart ! - Copyright ORBIFLY December 2007 - Disclaimer

ORBIFLY MET'MAP TEAM :

Programming & Development : Alexandra Zaïnal
Concept & original design : Baudouin d'Aumeries
Assistance for programming : Marc-Olivier Méhu
Technical & hardware support : Manuel Goepfert

Contact : metmap@orbifly.com




SOURCES & CREDITS :

   NOAA       Earth
Advisory